Low temp

Not for real navigation. The accuracy of this data is not assured See disclaimer for more information



ICAO NAME COUNTRY WIND Kt GUST Kt VIS m TEMP/DEW C BARO METAR
NZSP Amundsen-Scott South Pole Stat Antarctica 10 0 9999 -59/0 28.02 NZSP 160550Z 09010KT 9999 IC CAVOK M59/ A2802 RMK CLN AIR 09010KT ALL WNDS GRID SDG/HDG
NZCM Williams Field Antarctica 0 0 9999 -19/-24 28.88 NZCM 160555Z 00000KT 9999 -SN BKN025 BKN160 M19/M24 A2888 RMK AO2A SLP787 T11871242
PAKP Anaktuvuk Pass, Anaktuvuk Pass AK United States 5 0 9999 -17/-19 29.46 PAKP 160656Z AUTO 20005KT 10SM CAVOK M17/M19 A2946 RMK AO2 SLP046 T11671189 FZRANO
CYLT Alert Airport Canada 3 0 14400 -13/-15 29.73 CYLT 160600Z 01003KT 9SM -SN BKN004 OVC020 M13/M15 A2973 RMK SF6SC2 SLP071
BGSF Sdr Stroemfjord Greenland 8 0 9999 -12/-16 30.06 BGSF 160650Z AUTO 03008KT 9999NDV SCT200/// M12/M16 Q1018

Show more